createdAt,value
2018-09-02T00:00:04.039Z,21.70
2018-09-02T00:02:33.828Z,21.60
2018-09-02T00:05:05.723Z,21.52
2018-09-02T00:07:35.486Z,21.50
2018-09-02T00:10:05.902Z,21.55
2018-09-02T00:12:39.501Z,21.62
2018-09-02T00:15:21.650Z,21.58
2018-09-02T00:17:51.757Z,21.54
2018-09-02T00:20:21.529Z,21.51
2018-09-02T00:22:51.610Z,21.46
2018-09-02T00:25:21.114Z,21.48
2018-09-02T00:27:50.475Z,21.45
2018-09-02T00:30:20.041Z,21.36
2018-09-02T00:32:49.703Z,21.38
2018-09-02T00:35:19.442Z,21.37
2018-09-02T00:37:49.358Z,21.43
2018-09-02T00:40:18.901Z,21.35
2018-09-02T00:42:48.418Z,21.39
2018-09-02T00:45:17.897Z,21.43
2018-09-02T00:47:47.411Z,21.45
2018-09-02T00:50:16.906Z,21.28
2018-09-02T00:52:46.468Z,21.28
2018-09-02T00:55:16.008Z,21.34
2018-09-02T00:57:45.525Z,21.29
2018-09-02T01:00:15.283Z,21.29
2018-09-02T01:02:45.737Z,21.28
2018-09-02T01:05:15.579Z,21.33
2018-09-02T01:07:45.160Z,21.34
2018-09-02T01:10:14.870Z,21.32
2018-09-02T01:12:44.861Z,21.32
2018-09-02T01:15:15.576Z,21.32
2018-09-02T01:17:45.247Z,21.27
2018-09-02T01:20:15.213Z,21.23
2018-09-02T01:22:45.112Z,21.21
2018-09-02T01:25:14.713Z,21.14
2018-09-02T01:27:44.361Z,21.18
2018-09-02T01:30:14.217Z,21.13
2018-09-02T01:32:44.162Z,21.16
2018-09-02T01:35:18.684Z,21.12
2018-09-02T01:37:48.169Z,21.13
2018-09-02T01:40:17.707Z,21.01
2018-09-02T01:42:47.271Z,20.90
2018-09-02T01:45:16.907Z,20.93
2018-09-02T01:47:46.881Z,20.81
2018-09-02T01:50:16.593Z,20.89
2018-09-02T01:52:46.295Z,20.77
2018-09-02T01:55:16.157Z,20.63
2018-09-02T01:57:45.925Z,20.61
2018-09-02T02:00:17.144Z,20.27
2018-09-02T02:02:47.946Z,19.89
2018-09-02T02:05:17.522Z,19.70
2018-09-02T02:07:47.006Z,19.66
2018-09-02T02:10:16.676Z,19.63
2018-09-02T02:12:46.583Z,19.74
2018-09-02T02:15:16.424Z,19.67
2018-09-02T02:17:46.074Z,19.86
2018-09-02T02:20:16.641Z,19.97
2018-09-02T02:22:46.615Z,19.89
2018-09-02T02:25:16.521Z,19.89
2018-09-02T02:27:46.363Z,19.85
2018-09-02T02:30:16.260Z,19.77
2018-09-02T02:32:45.795Z,19.80
2018-09-02T02:35:16.516Z,19.92
2018-09-02T02:37:46.041Z,19.94
2018-09-02T02:40:15.790Z,20.05
2018-09-02T02:42:45.941Z,20.13
2018-09-02T02:45:15.558Z,20.18
2018-09-02T02:47:45.244Z,20.21
2018-09-02T02:50:15.062Z,20.23
2018-09-02T02:53:17.624Z,20.28
2018-09-02T02:55:47.354Z,20.23
2018-09-02T02:58:16.975Z,20.19
2018-09-02T03:00:46.623Z,20.16
2018-09-02T03:03:16.158Z,20.17
2018-09-02T03:05:45.656Z,20.14
2018-09-02T03:08:15.067Z,19.98
2018-09-02T03:10:44.599Z,19.97
2018-09-02T03:13:14.037Z,19.97
2018-09-02T03:15:43.602Z,19.88
2018-09-02T03:18:13.048Z,19.88
2018-09-02T03:20:42.586Z,19.99
2018-09-02T03:23:12.148Z,20.10
2018-09-02T03:25:42.052Z,20.02
2018-09-02T03:28:11.678Z,19.90
2018-09-02T03:30:41.229Z,19.79
2018-09-02T03:33:10.748Z,19.90
2018-09-02T03:35:40.358Z,19.95
2018-09-02T03:38:09.767Z,19.90
2018-09-02T03:40:40.085Z,19.91
2018-09-02T03:43:09.618Z,19.96
2018-09-02T03:45:39.251Z,19.98
2018-09-02T03:48:08.801Z,20.02
2018-09-02T03:50:38.782Z,20.10
2018-09-02T03:53:08.597Z,20.10
2018-09-02T03:55:38.286Z,20.03
2018-09-02T03:58:08.246Z,19.94
2018-09-02T04:00:38.148Z,19.88
2018-09-02T04:03:07.798Z,19.88
2018-09-02T04:05:37.685Z,19.84
2018-09-02T04:08:07.697Z,19.80
2018-09-02T04:10:37.671Z,19.78
2018-09-02T04:13:07.380Z,19.85
2018-09-02T04:15:36.915Z,19.88
2018-09-02T04:18:07.008Z,19.79
2018-09-02T04:20:38.766Z,19.95
2018-09-02T04:23:08.479Z,19.89
2018-09-02T04:25:37.954Z,20.02
2018-09-02T04:28:07.423Z,20.04
2018-09-02T04:30:37.040Z,20.01
2018-09-02T04:33:06.580Z,19.96
2018-09-02T04:35:36.094Z,20.05
2018-09-02T04:38:06.009Z,20.10
2018-09-02T04:40:35.794Z,20.14
2018-09-02T04:43:05.354Z,20.20
2018-09-02T04:45:34.880Z,20.31
2018-09-02T04:48:04.303Z,20.46
2018-09-02T04:50:33.898Z,20.71
2018-09-02T04:53:03.497Z,21.27
2018-09-02T04:55:33.022Z,21.79
2018-09-02T04:58:02.534Z,22.18
2018-09-02T05:00:32.003Z,22.57
2018-09-02T05:03:01.502Z,22.99
2018-09-02T05:05:31.277Z,23.38
2018-09-02T05:08:01.190Z,23.60
2018-09-02T05:10:30.650Z,23.93
2018-09-02T05:13:00.175Z,24.40
2018-09-02T05:15:29.719Z,24.76
2018-09-02T05:17:59.266Z,25.02
2018-09-02T05:20:28.952Z,25.35
2018-09-02T05:22:58.764Z,25.56
2018-09-02T05:25:28.696Z,25.56
2018-09-02T05:27:58.171Z,25.77
2018-09-02T05:30:27.798Z,26.09
2018-09-02T05:32:58.573Z,26.17
2018-09-02T05:35:28.592Z,26.55
2018-09-02T05:37:58.092Z,26.61
2018-09-02T05:40:27.792Z,26.68
2018-09-02T05:42:57.605Z,26.95
2018-09-02T05:45:27.377Z,26.89
2018-09-02T05:47:56.889Z,27.12
2018-09-02T05:50:26.594Z,27.26
2018-09-02T05:52:56.027Z,27.41
2018-09-02T05:55:25.585Z,27.57
2018-09-02T05:57:54.997Z,27.84
2018-09-02T06:00:24.505Z,28.24
2018-09-02T06:02:54.097Z,28.61
2018-09-02T06:05:26.065Z,29.04
2018-09-02T06:07:57.477Z,28.70
2018-09-02T06:10:27.296Z,28.33
2018-09-02T06:12:56.909Z,28.63
2018-09-02T06:15:26.405Z,28.89
2018-09-02T06:17:55.986Z,28.75
2018-09-02T06:20:25.604Z,29.41
2018-09-02T06:22:55.173Z,29.76
2018-09-02T06:25:24.924Z,30.22
2018-09-02T06:27:55.780Z,30.14
2018-09-02T06:30:25.254Z,29.63
2018-09-02T06:32:55.056Z,29.94
2018-09-02T06:35:24.802Z,30.22
2018-09-02T06:37:54.631Z,30.02
2018-09-02T06:40:24.265Z,30.19
2018-09-02T06:42:55.702Z,30.13
2018-09-02T06:45:25.320Z,30.68
2018-09-02T06:47:55.518Z,30.78
2018-09-02T06:50:25.094Z,32.03
2018-09-02T06:52:54.951Z,31.17
2018-09-02T06:55:24.753Z,31.16
2018-09-02T06:57:54.625Z,32.10
2018-09-02T07:00:24.363Z,31.95
2018-09-02T07:02:54.005Z,31.56
2018-09-02T07:05:23.978Z,31.88
2018-09-02T07:07:53.872Z,31.80
2018-09-02T07:10:23.318Z,32.02
2018-09-02T07:12:52.824Z,32.63
2018-09-02T07:15:22.255Z,32.98
2018-09-02T07:17:51.821Z,33.14
2018-09-02T07:20:21.843Z,33.12
2018-09-02T07:22:51.585Z,34.26
2018-09-02T07:25:21.116Z,35.19
2018-09-02T07:27:50.594Z,34.16
2018-09-02T07:30:20.134Z,33.41
2018-09-02T07:32:49.569Z,34.72
2018-09-02T07:35:19.042Z,34.26
2018-09-02T07:37:48.582Z,33.84
2018-09-02T07:40:18.013Z,33.57
2018-09-02T07:42:47.903Z,33.37
2018-09-02T07:45:18.690Z,33.52
2018-09-02T07:47:48.587Z,33.32
2018-09-02T07:50:18.125Z,33.90
2018-09-02T07:52:47.579Z,34.39
2018-09-02T07:55:17.290Z,35.03
2018-09-02T07:57:47.210Z,34.30
2018-09-02T08:00:16.922Z,34.34
2018-09-02T08:02:46.801Z,33.64
2018-09-02T08:05:16.723Z,34.39
2018-09-02T08:07:46.156Z,35.75
2018-09-02T08:10:15.648Z,35.05
2018-09-02T08:12:45.345Z,35.44
2018-09-02T08:15:14.754Z,35.64
2018-09-02T08:17:44.247Z,35.58
2018-09-02T08:20:13.873Z,35.80
2018-09-02T08:22:43.785Z,35.01
2018-09-02T08:25:13.538Z,34.92
2018-09-02T08:27:43.067Z,34.83
2018-09-02T08:30:12.646Z,36.07
2018-09-02T08:32:42.176Z,36.25
2018-09-02T08:35:11.606Z,36.73
2018-09-02T08:37:40.986Z,36.66
2018-09-02T08:40:10.482Z,36.22
2018-09-02T08:42:40.172Z,36.42
2018-09-02T08:45:10.335Z,36.31
2018-09-02T08:47:39.961Z,36.01
2018-09-02T08:50:09.551Z,36.59
2018-09-02T08:52:39.342Z,37.81
2018-09-02T08:55:09.255Z,37.65
2018-09-02T08:57:39.130Z,37.51
2018-09-02T09:00:09.523Z,36.49
2018-09-02T09:02:39.103Z,36.39
2018-09-02T09:05:08.559Z,36.82
2018-09-02T09:07:38.508Z,37.48
2018-09-02T09:10:08.849Z,37.16
2018-09-02T09:12:38.817Z,37.27
2018-09-02T09:15:08.256Z,37.27
2018-09-02T09:17:37.933Z,37.18
2018-09-02T09:20:08.095Z,37.09
2018-09-02T09:22:38.875Z,37.42
2018-09-02T09:25:09.978Z,38.29
2018-09-02T09:27:40.505Z,38.05
2018-09-02T09:30:10.719Z,38.32
2018-09-02T09:32:40.818Z,38.68
2018-09-02T09:35:10.257Z,37.74
2018-09-02T09:37:39.807Z,36.53
2018-09-02T09:40:09.566Z,36.64
2018-09-02T09:42:39.629Z,37.55
2018-09-02T09:45:09.200Z,37.64
2018-09-02T09:47:38.682Z,37.77
2018-09-02T09:50:08.358Z,38.66
2018-09-02T09:52:37.805Z,38.65
2018-09-02T09:55:07.231Z,38.68
2018-09-02T09:57:36.794Z,38.76
2018-09-02T10:00:06.787Z,38.12
2018-09-02T10:02:36.482Z,36.95
2018-09-02T10:05:06.746Z,37.03
2018-09-02T10:07:36.449Z,37.85
2018-09-02T10:10:05.991Z,37.90
2018-09-02T10:12:35.480Z,38.49
2018-09-02T10:15:05.130Z,37.70
2018-09-02T10:17:34.707Z,38.39
2018-09-02T10:20:04.542Z,37.88
2018-09-02T10:22:34.479Z,38.49
2018-09-02T10:25:03.981Z,37.99
2018-09-02T10:27:33.436Z,37.54
2018-09-02T10:30:03.057Z,37.77
2018-09-02T10:32:32.759Z,38.50
2018-09-02T10:35:02.484Z,39.59
2018-09-02T10:37:32.241Z,38.35
2018-09-02T10:40:01.782Z,38.02
2018-09-02T10:42:31.527Z,37.87
2018-09-02T10:45:01.295Z,38.38
2018-09-02T10:47:31.163Z,38.04
2018-09-02T10:50:00.781Z,38.09
2018-09-02T10:52:30.495Z,37.73
2018-09-02T10:55:00.444Z,37.46
2018-09-02T10:57:30.250Z,38.10
2018-09-02T10:59:59.938Z,38.10
2018-09-02T11:02:29.464Z,38.14
2018-09-02T11:04:59.265Z,37.96
2018-09-02T11:07:29.092Z,36.96
2018-09-02T11:09:58.727Z,38.33
2018-09-02T11:12:28.347Z,38.98
2018-09-02T11:14:57.818Z,39.40
2018-09-02T11:17:27.689Z,38.91
2018-09-02T11:19:57.406Z,38.80
2018-09-02T11:22:26.979Z,38.08
2018-09-02T11:24:56.498Z,38.63
2018-09-02T11:27:26.593Z,38.05
2018-09-02T11:29:56.371Z,37.77
2018-09-02T11:32:26.044Z,36.77
2018-09-02T11:34:56.059Z,37.25
2018-09-02T11:37:25.866Z,37.76
2018-09-02T11:39:55.744Z,37.83
2018-09-02T11:42:25.232Z,38.13
2018-09-02T11:44:55.424Z,38.46
2018-09-02T11:47:25.185Z,38.24
2018-09-02T11:49:55.134Z,37.68
2018-09-02T11:52:24.968Z,36.36
2018-09-02T11:54:54.626Z,35.31
2018-09-02T11:57:24.203Z,34.58
2018-09-02T11:59:54.293Z,34.36
2018-09-02T12:02:23.828Z,33.69
2018-09-02T12:04:53.452Z,33.43
2018-09-02T12:07:22.921Z,33.14
2018-09-02T12:09:52.475Z,33.10
2018-09-02T12:12:22.024Z,33.25
2018-09-02T12:14:52.070Z,33.33
2018-09-02T12:17:21.338Z,33.27
2018-09-02T12:19:51.155Z,33.31
2018-09-02T12:22:21.634Z,33.47
2018-09-02T12:24:51.365Z,33.56
2018-09-02T12:27:21.338Z,33.67
2018-09-02T12:29:51.091Z,33.60
2018-09-02T12:32:20.747Z,33.47
2018-09-02T12:34:50.348Z,33.20
2018-09-02T12:37:20.166Z,33.23
2018-09-02T12:39:50.303Z,33.50
2018-09-02T12:42:19.911Z,33.64
2018-09-02T12:44:49.667Z,33.71
2018-09-02T12:47:19.617Z,33.43
2018-09-02T12:49:49.149Z,33.32
2018-09-02T12:52:18.674Z,33.55
2018-09-02T12:54:48.528Z,33.79
2018-09-02T12:57:18.417Z,33.90
2018-09-02T12:59:48.073Z,33.70
2018-09-02T13:02:17.729Z,33.38
2018-09-02T13:04:47.794Z,33.31
2018-09-02T13:07:17.425Z,33.38
2018-09-02T13:09:48.219Z,33.50
2018-09-02T13:12:18.148Z,33.70
2018-09-02T13:14:47.941Z,33.48
2018-09-02T13:17:17.559Z,33.51
2018-09-02T13:19:47.117Z,33.38
2018-09-02T13:22:16.569Z,33.45
2018-09-02T13:24:46.495Z,33.60
2018-09-02T13:27:16.402Z,33.39
2018-09-02T13:29:46.063Z,33.13
2018-09-02T13:32:15.818Z,32.82
2018-09-02T13:34:45.745Z,32.77
2018-09-02T13:37:15.380Z,32.81
2018-09-02T13:39:45.043Z,33.02
2018-09-02T13:42:15.122Z,33.38
2018-09-02T13:44:44.946Z,33.54
2018-09-02T13:47:14.783Z,33.43
2018-09-02T13:49:44.749Z,33.51
2018-09-02T13:52:14.741Z,33.46
2018-09-02T13:54:44.795Z,33.48
2018-09-02T13:57:14.384Z,33.41
2018-09-02T13:59:44.467Z,33.54
2018-09-02T14:02:15.233Z,33.58
2018-09-02T14:04:44.878Z,33.33
2018-09-02T14:07:14.731Z,33.11
2018-09-02T14:09:45.453Z,32.97
2018-09-02T14:12:15.108Z,32.87
2018-09-02T14:14:44.666Z,32.71
2018-09-02T14:17:14.664Z,32.56
2018-09-02T14:19:44.513Z,32.49
2018-09-02T14:22:14.069Z,32.42
2018-09-02T14:24:43.712Z,32.41
2018-09-02T14:27:13.322Z,32.45
2018-09-02T14:29:43.196Z,32.50
2018-09-02T14:32:12.962Z,32.56
2018-09-02T14:34:42.662Z,32.63
2018-09-02T14:37:12.460Z,32.75
2018-09-02T14:39:42.157Z,32.78
2018-09-02T14:42:11.924Z,32.83
2018-09-02T14:44:41.462Z,32.83
2018-09-02T14:47:10.972Z,32.81
2018-09-02T14:49:41.084Z,32.77
2018-09-02T14:52:10.904Z,32.63
2018-09-02T14:54:40.524Z,32.57
2018-09-02T14:57:10.582Z,32.41
2018-09-02T14:59:40.288Z,32.45
2018-09-02T15:02:09.906Z,32.46
2018-09-02T15:04:39.703Z,32.42
2018-09-02T15:07:09.736Z,32.37
2018-09-02T15:09:39.321Z,32.36
2018-09-02T15:12:08.786Z,32.46
2018-09-02T15:14:39.266Z,32.45
2018-09-02T15:17:08.973Z,32.55
2018-09-02T15:19:38.640Z,32.53
2018-09-02T15:22:09.628Z,32.50
2018-09-02T15:24:39.289Z,32.37
2018-09-02T15:27:08.802Z,32.33
2018-09-02T15:29:38.329Z,32.25
2018-09-02T15:32:07.902Z,31.98
2018-09-02T15:34:37.553Z,31.75
2018-09-02T15:37:07.626Z,31.55
2018-09-02T15:39:37.391Z,31.41
2018-09-02T15:42:07.285Z,31.45
2018-09-02T15:44:37.206Z,31.45
2018-09-02T15:47:06.822Z,31.51
2018-09-02T15:49:36.788Z,31.48
2018-09-02T15:52:07.086Z,31.46
2018-09-02T15:54:37.173Z,31.43
2018-09-02T15:57:06.747Z,31.42
2018-09-02T15:59:36.319Z,31.34
2018-09-02T16:02:06.230Z,31.17
2018-09-02T16:04:36.026Z,31.01
2018-09-02T16:07:06.321Z,30.76
2018-09-02T16:09:36.010Z,30.33
2018-09-02T16:12:05.592Z,30.17
2018-09-02T16:14:35.122Z,29.93
2018-09-02T16:17:05.637Z,29.41
2018-09-02T16:19:35.398Z,29.32
2018-09-02T16:22:05.719Z,29.11
2018-09-02T16:24:35.143Z,28.93
2018-09-02T16:27:04.804Z,28.81
2018-09-02T16:29:34.496Z,28.74
2018-09-02T16:32:04.558Z,28.62
2018-09-02T16:34:34.358Z,28.40
2018-09-02T16:37:04.330Z,28.19
2018-09-02T16:39:34.037Z,28.01
2018-09-02T16:42:03.879Z,27.90
2018-09-02T16:44:33.658Z,27.70
2018-09-02T16:47:03.304Z,27.61
2018-09-02T16:49:32.924Z,27.57
2018-09-02T16:52:02.395Z,27.40
2018-09-02T16:54:31.800Z,27.40
2018-09-02T16:57:01.842Z,27.29
2018-09-02T16:59:31.583Z,27.17
2018-09-02T17:02:01.162Z,27.21
2018-09-02T17:04:32.746Z,27.26
2018-09-02T17:07:02.750Z,27.22
2018-09-02T17:09:32.342Z,27.30
2018-09-02T17:12:02.287Z,27.38
2018-09-02T17:14:32.368Z,27.34
2018-09-02T17:17:02.218Z,27.34
2018-09-02T17:19:37.273Z,26.87
2018-09-02T17:22:07.718Z,27.20
2018-09-02T17:24:37.774Z,27.22
2018-09-02T17:27:07.707Z,27.13
2018-09-02T17:29:37.542Z,27.15
2018-09-02T17:32:10.790Z,27.06
2018-09-02T17:34:40.579Z,27.07
2018-09-02T17:37:10.204Z,27.03
2018-09-02T17:39:39.864Z,26.90
2018-09-02T17:42:09.654Z,26.77
2018-09-02T17:44:39.732Z,26.69
2018-09-02T17:47:09.198Z,26.52
2018-09-02T17:49:38.977Z,26.52
2018-09-02T17:52:09.028Z,26.49
2018-09-02T17:54:38.746Z,26.46
2018-09-02T17:57:08.211Z,26.46
2018-09-02T17:59:37.971Z,26.38
2018-09-02T18:02:08.001Z,26.26
2018-09-02T18:04:37.615Z,26.17
2018-09-02T18:07:07.186Z,26.09
2018-09-02T18:09:36.640Z,26.00
2018-09-02T18:12:06.318Z,25.89
2018-09-02T18:14:36.293Z,25.85
2018-09-02T18:17:05.968Z,25.78
2018-09-02T18:19:35.593Z,25.75
2018-09-02T18:22:05.265Z,25.66
2018-09-02T18:24:35.152Z,25.63
2018-09-02T18:27:04.890Z,25.62
2018-09-02T18:29:34.505Z,25.53
2018-09-02T18:32:04.356Z,25.48
2018-09-02T18:34:34.374Z,25.50
2018-09-02T18:37:04.243Z,25.51
2018-09-02T18:39:34.257Z,25.43
2018-09-02T18:42:03.654Z,25.46
2018-09-02T18:44:33.191Z,25.44
2018-09-02T18:47:02.814Z,25.36
2018-09-02T18:49:32.400Z,25.33
2018-09-02T18:52:02.519Z,25.33
2018-09-02T18:54:32.202Z,25.33
2018-09-02T18:57:01.717Z,25.19
2018-09-02T18:59:31.608Z,25.18
2018-09-02T19:02:01.623Z,25.03
2018-09-02T19:04:31.267Z,24.95
2018-09-02T19:07:01.144Z,24.84
2018-09-02T19:09:30.961Z,24.92
2018-09-02T19:12:00.620Z,24.93
2018-09-02T19:14:30.585Z,24.85
2018-09-02T19:17:00.560Z,24.75
2018-09-02T19:19:31.292Z,24.62
2018-09-02T19:22:01.195Z,24.53
2018-09-02T19:24:30.865Z,24.63
2018-09-02T19:27:00.617Z,24.58
2018-09-02T19:29:30.647Z,24.48
2018-09-02T19:32:00.425Z,24.45
2018-09-02T19:34:30.441Z,24.40
2018-09-02T19:37:00.493Z,24.38
2018-09-02T19:39:30.046Z,24.32
2018-09-02T19:42:00.009Z,24.37
2018-09-02T19:44:29.756Z,24.37
2018-09-02T19:46:59.461Z,24.23
2018-09-02T19:49:29.237Z,24.28
2018-09-02T19:51:59.228Z,24.22
2018-09-02T19:54:28.866Z,24.19
2018-09-02T19:56:58.425Z,24.14
2018-09-02T19:59:28.398Z,24.17
2018-09-02T20:01:58.523Z,24.17
2018-09-02T20:04:28.221Z,24.14
2018-09-02T20:06:58.203Z,24.08
2018-09-02T20:09:28.361Z,24.05
2018-09-02T20:11:58.149Z,23.87
2018-09-02T20:14:27.866Z,23.91
2018-09-02T20:16:57.549Z,23.96
2018-09-02T20:19:27.702Z,23.80
2018-09-02T20:21:57.736Z,23.84
2018-09-02T20:24:27.705Z,23.88
2018-09-02T20:26:57.667Z,23.79
2018-09-02T20:29:28.401Z,23.26
2018-09-02T20:31:58.382Z,23.79
2018-09-02T20:34:28.127Z,23.77
2018-09-02T20:36:58.307Z,23.21
2018-09-02T20:39:30.896Z,23.73
2018-09-02T20:42:01.085Z,23.64
2018-09-02T20:44:31.106Z,23.59
2018-09-02T20:47:00.898Z,23.62
2018-09-02T20:49:30.629Z,23.58
2018-09-02T20:52:00.197Z,23.52
2018-09-02T20:54:30.064Z,23.56
2018-09-02T20:56:59.807Z,23.50
2018-09-02T20:59:29.703Z,23.48
2018-09-02T21:01:59.543Z,23.51
2018-09-02T21:04:29.466Z,23.42
2018-09-02T21:06:58.878Z,23.35
2018-09-02T21:09:28.727Z,23.32
2018-09-02T21:11:58.513Z,23.32
2018-09-02T21:14:28.554Z,23.40
2018-09-02T21:16:58.171Z,23.41
2018-09-02T21:19:28.372Z,23.44
2018-09-02T21:21:57.950Z,23.35
2018-09-02T21:24:27.553Z,23.35
2018-09-02T21:26:57.713Z,23.35
2018-09-02T21:29:27.254Z,23.36
2018-09-02T21:31:57.334Z,23.35
2018-09-02T21:34:27.317Z,23.42
2018-09-02T21:36:57.009Z,23.36
2018-09-02T21:39:27.004Z,23.37
2018-09-02T21:41:56.729Z,23.51
2018-09-02T21:44:26.402Z,23.45
2018-09-02T21:46:56.294Z,23.36
2018-09-02T21:49:26.104Z,23.47
2018-09-02T21:51:55.728Z,23.35
2018-09-02T21:54:25.163Z,23.39
2018-09-02T21:56:59.758Z,23.44
2018-09-02T21:59:29.990Z,23.38
2018-09-02T22:01:59.717Z,23.39
2018-09-02T22:04:29.506Z,23.37
2018-09-02T22:06:59.908Z,23.28
2018-09-02T22:09:29.614Z,23.31
2018-09-02T22:11:59.377Z,23.31
2018-09-02T22:14:29.051Z,23.27
2018-09-02T22:16:58.609Z,23.22
2018-09-02T22:19:28.028Z,23.13
2018-09-02T22:21:58.415Z,23.06
2018-09-02T22:24:28.240Z,23.09
2018-09-02T22:26:58.347Z,23.08
2018-09-02T22:29:28.137Z,23.07
2018-09-02T22:31:58.460Z,23.18
2018-09-02T22:34:28.139Z,23.14
2018-09-02T22:36:57.732Z,23.08
2018-09-02T22:39:28.455Z,23.11
2018-09-02T22:41:58.226Z,23.04
2018-09-02T22:44:27.969Z,23.02
2018-09-02T22:46:58.582Z,23.03
2018-09-02T22:49:28.198Z,23.09
2018-09-02T22:51:57.957Z,23.06
2018-09-02T22:54:27.697Z,23.04
2018-09-02T22:56:57.429Z,23.16
2018-09-02T22:59:28.036Z,23.06
2018-09-02T23:01:59.057Z,23.10
2018-09-02T23:04:29.753Z,23.02
2018-09-02T23:06:59.462Z,22.89
2018-09-02T23:09:28.940Z,22.84
2018-09-02T23:11:58.363Z,22.89
2018-09-02T23:14:28.996Z,22.87
2018-09-02T23:16:58.484Z,22.88
2018-09-02T23:19:27.884Z,22.70
2018-09-02T23:21:57.885Z,22.78
2018-09-02T23:24:27.707Z,22.74
2018-09-02T23:26:57.281Z,22.70
2018-09-02T23:29:26.967Z,22.73
2018-09-02T23:31:57.071Z,22.70
2018-09-02T23:34:26.863Z,22.58
2018-09-02T23:36:56.639Z,22.42
2018-09-02T23:39:26.651Z,22.28
2018-09-02T23:41:56.331Z,22.07
2018-09-02T23:44:25.881Z,21.83
2018-09-02T23:46:55.405Z,21.24
2018-09-02T23:49:25.321Z,21.58
2018-09-02T23:51:55.077Z,21.53
2018-09-02T23:54:25.615Z,21.51
2018-09-02T23:56:55.444Z,21.38
2018-09-02T23:59:25.169Z,21.32
